sensor_id;sensor_type;location;lat;lon;timestamp;P1;durP1;ratioP1;P2;durP2;ratioP2
30888;SDS011;51092;50.874;7.024;2023-09-12T00:00:34;16.25;;;9.90;;
30888;SDS011;51092;50.874;7.024;2023-09-12T00:01:36;16.40;;;10.63;;
30888;SDS011;51092;50.874;7.024;2023-09-12T00:02:39;19.70;;;10.48;;
30888;SDS011;51092;50.874;7.024;2023-09-12T00:03:41;16.27;;;9.43;;
30888;SDS011;51092;50.874;7.024;2023-09-12T00:04:44;11.57;;;9.23;;
30888;SDS011;51092;50.874;7.024;2023-09-12T00:05:50;24.83;;;10.52;;
30888;SDS011;51092;50.874;7.024;2023-09-12T00:06:53;15.75;;;9.85;;
30888;SDS011;51092;50.874;7.024;2023-09-12T00:07:54;13.18;;;9.20;;
30888;SDS011;51092;50.874;7.024;2023-09-12T00:08:59;14.70;;;10.10;;
30888;SDS011;51092;50.874;7.024;2023-09-12T00:10:01;16.98;;;9.70;;
30888;SDS011;51092;50.874;7.024;2023-09-12T00:11:04;15.18;;;9.50;;
30888;SDS011;51092;50.874;7.024;2023-09-12T00:12:07;15.75;;;10.30;;
30888;SDS011;51092;50.874;7.024;2023-09-12T00:13:09;12.05;;;8.93;;
30888;SDS011;51092;50.874;7.024;2023-09-12T00:14:14;12.30;;;8.63;;
30888;SDS011;51092;50.874;7.024;2023-09-12T00:15:17;11.15;;;8.63;;
30888;SDS011;51092;50.874;7.024;2023-09-12T00:16:20;12.48;;;10.43;;
30888;SDS011;51092;50.874;7.024;2023-09-12T00:17:22;12.63;;;9.20;;
30888;SDS011;51092;50.874;7.024;2023-09-12T00:18:24;13.75;;;9.10;;
30888;SDS011;51092;50.874;7.024;2023-09-12T00:19:28;18.27;;;9.57;;
30888;SDS011;51092;50.874;7.024;2023-09-12T00:20:29;16.48;;;9.48;;
30888;SDS011;51092;50.874;7.024;2023-09-12T00:21:32;19.23;;;10.38;;
30888;SDS011;51092;50.874;7.024;2023-09-12T00:22:33;13.77;;;10.43;;
30888;SDS011;51092;50.874;7.024;2023-09-12T00:23:36;17.00;;;9.68;;
30888;SDS011;51092;50.874;7.024;2023-09-12T00:24:37;13.70;;;9.85;;
30888;SDS011;51092;50.874;7.024;2023-09-12T00:25:40;16.13;;;8.93;;
30888;SDS011;51092;50.874;7.024;2023-09-12T00:26:41;18.52;;;9.35;;
30888;SDS011;51092;50.874;7.024;2023-09-12T00:27:44;14.40;;;9.35;;
30888;SDS011;51092;50.874;7.024;2023-09-12T00:28:45;12.82;;;10.95;;
30888;SDS011;51092;50.874;7.024;2023-09-12T00:29:48;18.55;;;10.40;;
30888;SDS011;51092;50.874;7.024;2023-09-12T00:30:49;16.58;;;8.48;;
30888;SDS011;51092;50.874;7.024;2023-09-12T00:31:53;11.82;;;8.48;;
30888;SDS011;51092;50.874;7.024;2023-09-12T00:32:54;12.75;;;8.43;;
30888;SDS011;51092;50.874;7.024;2023-09-12T00:33:56;13.55;;;9.80;;
30888;SDS011;51092;50.874;7.024;2023-09-12T00:34:59;14.30;;;8.77;;
30888;SDS011;51092;50.874;7.024;2023-09-12T00:36:02;12.40;;;9.73;;
30888;SDS011;51092;50.874;7.024;2023-09-12T00:37:04;14.50;;;8.90;;
30888;SDS011;51092;50.874;7.024;2023-09-12T00:38:06;14.75;;;9.30;;
30888;SDS011;51092;50.874;7.024;2023-09-12T00:39:09;10.40;;;8.90;;
30888;SDS011;51092;50.874;7.024;2023-09-12T00:40:11;11.65;;;8.85;;
30888;SDS011;51092;50.874;7.024;2023-09-12T00:41:13;16.73;;;7.85;;
30888;SDS011;51092;50.874;7.024;2023-09-12T00:42:15;13.65;;;9.30;;
30888;SDS011;51092;50.874;7.024;2023-09-12T00:43:17;11.48;;;9.32;;
30888;SDS011;51092;50.874;7.024;2023-09-12T00:44:19;12.52;;;9.13;;
30888;SDS011;51092;50.874;7.024;2023-09-12T00:45:21;12.80;;;8.60;;
30888;SDS011;51092;50.874;7.024;2023-09-12T00:46:23;13.32;;;8.80;;
30888;SDS011;51092;50.874;7.024;2023-09-12T00:47:25;9.85;;;7.93;;
30888;SDS011;51092;50.874;7.024;2023-09-12T00:48:30;10.48;;;8.00;;
30888;SDS011;51092;50.874;7.024;2023-09-12T00:49:32;12.40;;;9.20;;
30888;SDS011;51092;50.874;7.024;2023-09-12T00:50:37;13.88;;;9.13;;
30888;SDS011;51092;50.874;7.024;2023-09-12T00:51:40;15.25;;;9.15;;
30888;SDS011;51092;50.874;7.024;2023-09-12T00:52:43;10.30;;;8.50;;
30888;SDS011;51092;50.874;7.024;2023-09-12T00:53:46;16.20;;;8.93;;
30888;SDS011;51092;50.874;7.024;2023-09-12T00:54:49;13.43;;;8.88;;
30888;SDS011;51092;50.874;7.024;2023-09-12T00:55:51;10.45;;;8.23;;
30888;SDS011;51092;50.874;7.024;2023-09-12T00:56:57;11.38;;;8.88;;
30888;SDS011;51092;50.874;7.024;2023-09-12T00:57:59;13.60;;;9.35;;
30888;SDS011;51092;50.874;7.024;2023-09-12T00:59:03;15.07;;;8.27;;
30888;SDS011;51092;50.874;7.024;2023-09-12T01:00:05;13.52;;;9.43;;
30888;SDS011;51092;50.874;7.024;2023-09-12T01:01:13;13.45;;;8.15;;
30888;SDS011;51092;50.874;7.024;2023-09-12T01:02:14;13.90;;;8.50;;
30888;SDS011;51092;50.874;7.024;2023-09-12T01:03:17;9.43;;;7.78;;
30888;SDS011;51092;50.874;7.024;2023-09-12T01:04:18;14.50;;;8.95;;
30888;SDS011;51092;50.874;7.024;2023-09-12T01:05:22;13.10;;;8.65;;
30888;SDS011;51092;50.874;7.024;2023-09-12T01:06:25;12.52;;;8.52;;
30888;SDS011;51092;50.874;7.024;2023-09-12T01:07:28;10.68;;;8.85;;
30888;SDS011;51092;50.874;7.024;2023-09-12T01:08:30;14.15;;;8.52;;
30888;SDS011;51092;50.874;7.024;2023-09-12T01:09:32;13.73;;;8.45;;
30888;SDS011;51092;50.874;7.024;2023-09-12T01:10:34;9.20;;;7.18;;
30888;SDS011;51092;50.874;7.024;2023-09-12T01:11:37;15.10;;;7.80;;
30888;SDS011;51092;50.874;7.024;2023-09-12T01:12:39;11.50;;;8.00;;
30888;SDS011;51092;50.874;7.024;2023-09-12T01:13:41;11.07;;;8.20;;
30888;SDS011;51092;50.874;7.024;2023-09-12T01:14:42;13.38;;;8.85;;
30888;SDS011;51092;50.874;7.024;2023-09-12T01:15:45;12.93;;;8.05;;
30888;SDS011;51092;50.874;7.024;2023-09-12T01:16:46;14.10;;;8.73;;
30888;SDS011;51092;50.874;7.024;2023-09-12T01:17:49;13.07;;;8.63;;
30888;SDS011;51092;50.874;7.024;2023-09-12T01:18:50;11.80;;;8.57;;
30888;SDS011;51092;50.874;7.024;2023-09-12T01:19:53;11.27;;;9.15;;
30888;SDS011;51092;50.874;7.024;2023-09-12T01:21:01;14.02;;;7.90;;
30888;SDS011;51092;50.874;7.024;2023-09-12T01:22:24;9.10;;;7.60;;
30888;SDS011;51092;50.874;7.024;2023-09-12T01:23:45;14.07;;;8.68;;
30888;SDS011;51092;50.874;7.024;2023-09-12T01:25:08;12.02;;;8.55;;
30888;SDS011;51092;50.874;7.024;2023-09-12T01:26:29;14.88;;;8.05;;
30888;SDS011;51092;50.874;7.024;2023-09-12T01:27:39;8.55;;;7.18;;
30888;SDS011;51092;50.874;7.024;2023-09-12T01:28:43;10.65;;;7.70;;
30888;SDS011;51092;50.874;7.024;2023-09-12T01:29:48;12.65;;;8.95;;
30888;SDS011;51092;50.874;7.024;2023-09-12T01:30:54;12.65;;;8.55;;
30888;SDS011;51092;50.874;7.024;2023-09-12T01:31:57;13.60;;;9.32;;
30888;SDS011;51092;50.874;7.024;2023-09-12T01:33:01;12.07;;;8.18;;
30888;SDS011;51092;50.874;7.024;2023-09-12T01:34:08;10.95;;;9.82;;
30888;SDS011;51092;50.874;7.024;2023-09-12T01:35:10;13.18;;;9.60;;
30888;SDS011;51092;50.874;7.024;2023-09-12T01:36:12;11.57;;;9.02;;
30888;SDS011;51092;50.874;7.024;2023-09-12T01:37:14;12.20;;;9.50;;
30888;SDS011;51092;50.874;7.024;2023-09-12T01:38:16;13.13;;;9.18;;
30888;SDS011;51092;50.874;7.024;2023-09-12T01:39:18;13.90;;;10.23;;
30888;SDS011;51092;50.874;7.024;2023-09-12T01:40:21;12.68;;;8.95;;
30888;SDS011;51092;50.874;7.024;2023-09-12T01:41:28;14.63;;;10.45;;
30888;SDS011;51092;50.874;7.024;2023-09-12T01:42:35;17.75;;;9.70;;
30888;SDS011;51092;50.874;7.024;2023-09-12T01:43:39;16.88;;;9.88;;
30888;SDS011;51092;50.874;7.024;2023-09-12T01:44:44;12.13;;;9.13;;
30888;SDS011;51092;50.874;7.024;2023-09-12T01:45:47;13.55;;;10.88;;
30888;SDS011;51092;50.874;7.024;2023-09-12T01:46:52;12.30;;;10.10;;
30888;SDS011;51092;50.874;7.024;2023-09-12T01:47:55;15.70;;;10.48;;
30888;SDS011;51092;50.874;7.024;2023-09-12T01:48:57;12.80;;;10.27;;
30888;SDS011;51092;50.874;7.024;2023-09-12T01:50:00;17.15;;;10.32;;
30888;SDS011;51092;50.874;7.024;2023-09-12T01:51:04;18.75;;;11.95;;
30888;SDS011;51092;50.874;7.024;2023-09-12T01:52:07;13.80;;;10.18;;
30888;SDS011;51092;50.874;7.024;2023-09-12T01:53:10;14.05;;;10.98;;
30888;SDS011;51092;50.874;7.024;2023-09-12T01:54:12;18.67;;;10.60;;
30888;SDS011;51092;50.874;7.024;2023-09-12T01:55:16;12.50;;;11.20;;
30888;SDS011;51092;50.874;7.024;2023-09-12T01:56:18;16.05;;;11.93;;
30888;SDS011;51092;50.874;7.024;2023-09-12T01:57:22;15.15;;;11.35;;
30888;SDS011;51092;50.874;7.024;2023-09-12T01:58:24;16.27;;;12.65;;
30888;SDS011;51092;50.874;7.024;2023-09-12T01:59:29;18.00;;;11.95;;
30888;SDS011;51092;50.874;7.024;2023-09-12T02:00:30;14.07;;;11.77;;
30888;SDS011;51092;50.874;7.024;2023-09-12T02:01:35;17.42;;;12.10;;
30888;SDS011;51092;50.874;7.024;2023-09-12T02:02:36;19.13;;;12.65;;
30888;SDS011;51092;50.874;7.024;2023-09-12T02:03:39;17.77;;;12.45;;
30888;SDS011;51092;50.874;7.024;2023-09-12T02:04:40;20.30;;;12.45;;
30888;SDS011;51092;50.874;7.024;2023-09-12T02:05:43;18.33;;;13.25;;
30888;SDS011;51092;50.874;7.024;2023-09-12T02:06:44;16.80;;;13.18;;
30888;SDS011;51092;50.874;7.024;2023-09-12T02:07:47;18.52;;;13.07;;
30888;SDS011;51092;50.874;7.024;2023-09-12T02:08:49;16.10;;;12.40;;
30888;SDS011;51092;50.874;7.024;2023-09-12T02:09:53;20.52;;;13.60;;
30888;SDS011;51092;50.874;7.024;2023-09-12T02:10:54;16.27;;;12.65;;
30888;SDS011;51092;50.874;7.024;2023-09-12T02:11:57;16.73;;;12.10;;
30888;SDS011;51092;50.874;7.024;2023-09-12T02:12:58;16.80;;;13.18;;
30888;SDS011;51092;50.874;7.024;2023-09-12T02:14:01;17.35;;;12.55;;
30888;SDS011;51092;50.874;7.024;2023-09-12T02:15:05;16.58;;;12.85;;
30888;SDS011;51092;50.874;7.024;2023-09-12T02:16:08;15.48;;;12.45;;
30888;SDS011;51092;50.874;7.024;2023-09-12T02:17:09;17.27;;;12.13;;
30888;SDS011;51092;50.874;7.024;2023-09-12T02:18:12;14.52;;;11.88;;
30888;SDS011;51092;50.874;7.024;2023-09-12T02:19:13;13.52;;;12.10;;
30888;SDS011;51092;50.874;7.024;2023-09-12T02:20:16;13.57;;;11.95;;
30888;SDS011;51092;50.874;7.024;2023-09-12T02:21:17;14.48;;;10.45;;
30888;SDS011;51092;50.874;7.024;2023-09-12T02:22:19;14.27;;;12.13;;
30888;SDS011;51092;50.874;7.024;2023-09-12T02:23:21;16.60;;;11.68;;
30888;SDS011;51092;50.874;7.024;2023-09-12T02:24:23;15.20;;;11.85;;
30888;SDS011;51092;50.874;7.024;2023-09-12T02:25:26;14.77;;;11.05;;
30888;SDS011;51092;50.874;7.024;2023-09-12T02:26:27;17.10;;;10.98;;
30888;SDS011;51092;50.874;7.024;2023-09-12T02:27:30;17.63;;;11.25;;
30888;SDS011;51092;50.874;7.024;2023-09-12T02:28:31;15.35;;;10.77;;
30888;SDS011;51092;50.874;7.024;2023-09-12T02:29:34;16.35;;;11.60;;
30888;SDS011;51092;50.874;7.024;2023-09-12T02:30:39;12.15;;;10.75;;
30888;SDS011;51092;50.874;7.024;2023-09-12T02:31:42;17.38;;;11.05;;
30888;SDS011;51092;50.874;7.024;2023-09-12T02:32:43;14.07;;;11.35;;
30888;SDS011;51092;50.874;7.024;2023-09-12T02:33:46;13.70;;;10.80;;
30888;SDS011;51092;50.874;7.024;2023-09-12T02:34:48;14.68;;;11.80;;
30888;SDS011;51092;50.874;7.024;2023-09-12T02:35:51;14.30;;;11.63;;
30888;SDS011;51092;50.874;7.024;2023-09-12T02:36:52;19.45;;;10.88;;
30888;SDS011;51092;50.874;7.024;2023-09-12T02:37:55;13.80;;;10.85;;
30888;SDS011;51092;50.874;7.024;2023-09-12T02:38:56;14.32;;;10.93;;
30888;SDS011;51092;50.874;7.024;2023-09-12T02:40:01;16.55;;;11.18;;
30888;SDS011;51092;50.874;7.024;2023-09-12T02:41:02;13.70;;;11.50;;
30888;SDS011;51092;50.874;7.024;2023-09-12T02:42:04;14.15;;;11.25;;
30888;SDS011;51092;50.874;7.024;2023-09-12T02:43:05;17.17;;;10.90;;
30888;SDS011;51092;50.874;7.024;2023-09-12T02:44:08;13.35;;;9.82;;
30888;SDS011;51092;50.874;7.024;2023-09-12T02:45:09;15.27;;;11.48;;
30888;SDS011;51092;50.874;7.024;2023-09-12T02:46:13;12.68;;;10.98;;
30888;SDS011;51092;50.874;7.024;2023-09-12T02:47:15;13.00;;;10.80;;
30888;SDS011;51092;50.874;7.024;2023-09-12T02:48:17;12.57;;;10.82;;
30888;SDS011;51092;50.874;7.024;2023-09-12T02:49:18;15.10;;;10.85;;
30888;SDS011;51092;50.874;7.024;2023-09-12T02:50:19;13.77;;;11.45;;
30888;SDS011;51092;50.874;7.024;2023-09-12T02:51:21;12.60;;;10.65;;
30888;SDS011;51092;50.874;7.024;2023-09-12T02:52:22;14.80;;;10.40;;
30888;SDS011;51092;50.874;7.024;2023-09-12T02:53:24;12.30;;;10.98;;
30888;SDS011;51092;50.874;7.024;2023-09-12T02:54:26;11.45;;;10.32;;
30888;SDS011;51092;50.874;7.024;2023-09-12T02:55:28;13.75;;;9.63;;
30888;SDS011;51092;50.874;7.024;2023-09-12T02:56:30;12.80;;;9.82;;
30888;SDS011;51092;50.874;7.024;2023-09-12T02:57:32;12.82;;;9.45;;
30888;SDS011;51092;50.874;7.024;2023-09-12T02:58:33;13.10;;;8.90;;
30888;SDS011;51092;50.874;7.024;2023-09-12T02:59:36;12.95;;;9.80;;
30888;SDS011;51092;50.874;7.024;2023-09-12T03:00:38;11.25;;;9.18;;
30888;SDS011;51092;50.874;7.024;2023-09-12T03:01:42;12.25;;;8.70;;
30888;SDS011;51092;50.874;7.024;2023-09-12T03:02:44;9.93;;;8.82;;
30888;SDS011;51092;50.874;7.024;2023-09-12T03:03:46;10.60;;;8.52;;
30888;SDS011;51092;50.874;7.024;2023-09-12T03:04:49;12.55;;;9.27;;
30888;SDS011;51092;50.874;7.024;2023-09-12T03:05:58;10.73;;;8.82;;
30888;SDS011;51092;50.874;7.024;2023-09-12T03:07:00;11.32;;;8.77;;
30888;SDS011;51092;50.874;7.024;2023-09-12T03:08:02;10.45;;;8.05;;
30888;SDS011;51092;50.874;7.024;2023-09-12T03:09:05;10.32;;;8.23;;
30888;SDS011;51092;50.874;7.024;2023-09-12T03:10:08;10.70;;;7.88;;
30888;SDS011;51092;50.874;7.024;2023-09-12T03:11:10;8.55;;;7.53;;
30888;SDS011;51092;50.874;7.024;2023-09-12T03:12:13;10.30;;;8.45;;
30888;SDS011;51092;50.874;7.024;2023-09-12T03:13:14;11.23;;;7.80;;
30888;SDS011;51092;50.874;7.024;2023-09-12T03:14:16;9.27;;;7.53;;
30888;SDS011;51092;50.874;7.024;2023-09-12T03:15:21;13.82;;;8.07;;
30888;SDS011;51092;50.874;7.024;2023-09-12T03:16:23;9.93;;;7.40;;
30888;SDS011;51092;50.874;7.024;2023-09-12T03:17:26;10.48;;;7.78;;
30888;SDS011;51092;50.874;7.024;2023-09-12T03:18:30;10.82;;;7.18;;
30888;SDS011;51092;50.874;7.024;2023-09-12T03:19:31;9.45;;;6.90;;
30888;SDS011;51092;50.874;7.024;2023-09-12T03:20:37;7.80;;;7.00;;
30888;SDS011;51092;50.874;7.024;2023-09-12T03:21:39;8.73;;;6.75;;
30888;SDS011;51092;50.874;7.024;2023-09-12T03:22:42;7.90;;;6.43;;
30888;SDS011;51092;50.874;7.024;2023-09-12T03:23:43;7.43;;;6.60;;
30888;SDS011;51092;50.874;7.024;2023-09-12T03:24:45;8.55;;;6.95;;
30888;SDS011;51092;50.874;7.024;2023-09-12T03:25:47;8.57;;;6.35;;
30888;SDS011;51092;50.874;7.024;2023-09-12T03:26:49;9.75;;;6.88;;
30888;SDS011;51092;50.874;7.024;2023-09-12T03:27:50;7.00;;;6.30;;
30888;SDS011;51092;50.874;7.024;2023-09-12T03:28:51;8.80;;;6.68;;
30888;SDS011;51092;50.874;7.024;2023-09-12T03:29:52;6.85;;;5.93;;
30888;SDS011;51092;50.874;7.024;2023-09-12T03:31:02;7.10;;;5.78;;
30888;SDS011;51092;50.874;7.024;2023-09-12T03:32:05;6.57;;;5.78;;
30888;SDS011;51092;50.874;7.024;2023-09-12T03:33:09;6.93;;;5.97;;
30888;SDS011;51092;50.874;7.024;2023-09-12T03:34:10;7.07;;;5.85;;
30888;SDS011;51092;50.874;7.024;2023-09-12T03:35:12;7.70;;;5.53;;
30888;SDS011;51092;50.874;7.024;2023-09-12T03:36:14;6.90;;;6.20;;
30888;SDS011;51092;50.874;7.024;2023-09-12T03:37:17;8.23;;;6.68;;
30888;SDS011;51092;50.874;7.024;2023-09-12T03:38:18;12.63;;;6.55;;
30888;SDS011;51092;50.874;7.024;2023-09-12T03:39:21;10.35;;;6.18;;
30888;SDS011;51092;50.874;7.024;2023-09-12T03:40:22;10.25;;;6.20;;
30888;SDS011;51092;50.874;7.024;2023-09-12T03:41:25;9.65;;;6.40;;
30888;SDS011;51092;50.874;7.024;2023-09-12T03:42:26;8.55;;;6.25;;
30888;SDS011;51092;50.874;7.024;2023-09-12T03:43:29;10.95;;;7.05;;
30888;SDS011;51092;50.874;7.024;2023-09-12T03:44:30;8.15;;;6.40;;
30888;SDS011;51092;50.874;7.024;2023-09-12T03:45:33;9.07;;;6.47;;
30888;SDS011;51092;50.874;7.024;2023-09-12T03:46:35;6.72;;;5.57;;
30888;SDS011;51092;50.874;7.024;2023-09-12T03:47:37;8.30;;;5.68;;
30888;SDS011;51092;50.874;7.024;2023-09-12T03:48:40;7.07;;;6.38;;
30888;SDS011;51092;50.874;7.024;2023-09-12T03:49:42;9.63;;;6.03;;
30888;SDS011;51092;50.874;7.024;2023-09-12T03:50:44;8.50;;;6.03;;
30888;SDS011;51092;50.874;7.024;2023-09-12T03:51:46;7.32;;;5.93;;
30888;SDS011;51092;50.874;7.024;2023-09-12T03:52:48;9.68;;;6.22;;
30888;SDS011;51092;50.874;7.024;2023-09-12T03:53:50;7.45;;;6.72;;
30888;SDS011;51092;50.874;7.024;2023-09-12T03:54:52;9.27;;;6.88;;
30888;SDS011;51092;50.874;7.024;2023-09-12T03:55:53;7.82;;;6.40;;
30888;SDS011;51092;50.874;7.024;2023-09-12T03:56:56;8.88;;;6.57;;
30888;SDS011;51092;50.874;7.024;2023-09-12T03:57:57;15.95;;;6.57;;
30888;SDS011;51092;50.874;7.024;2023-09-12T03:59:00;6.93;;;6.22;;
30888;SDS011;51092;50.874;7.024;2023-09-12T04:00:02;10.43;;;7.45;;
30888;SDS011;51092;50.874;7.024;2023-09-12T04:01:06;9.38;;;7.15;;
30888;SDS011;51092;50.874;7.024;2023-09-12T04:02:08;12.93;;;7.28;;
30888;SDS011;51092;50.874;7.024;2023-09-12T04:03:10;7.53;;;6.57;;
30888;SDS011;51092;50.874;7.024;2023-09-12T04:04:13;7.80;;;6.28;;
30888;SDS011;51092;50.874;7.024;2023-09-12T04:05:16;10.93;;;6.78;;
30888;SDS011;51092;50.874;7.024;2023-09-12T04:06:17;10.77;;;6.45;;
30888;SDS011;51092;50.874;7.024;2023-09-12T04:07:22;12.20;;;6.80;;
30888;SDS011;51092;50.874;7.024;2023-09-12T04:08:23;9.27;;;7.28;;
30888;SDS011;51092;50.874;7.024;2023-09-12T04:09:28;10.50;;;6.93;;
30888;SDS011;51092;50.874;7.024;2023-09-12T04:10:30;9.10;;;7.18;;
30888;SDS011;51092;50.874;7.024;2023-09-12T04:11:33;9.60;;;7.25;;
30888;SDS011;51092;50.874;7.024;2023-09-12T04:12:34;9.15;;;7.13;;
30888;SDS011;51092;50.874;7.024;2023-09-12T04:13:36;10.20;;;7.30;;
30888;SDS011;51092;50.874;7.024;2023-09-12T04:14:38;8.68;;;7.03;;
30888;SDS011;51092;50.874;7.024;2023-09-12T04:15:40;9.40;;;6.70;;
30888;SDS011;51092;50.874;7.024;2023-09-12T04:16:41;8.35;;;6.50;;
30888;SDS011;51092;50.874;7.024;2023-09-12T04:17:43;13.23;;;7.53;;
30888;SDS011;51092;50.874;7.024;2023-09-12T04:18:44;10.07;;;7.63;;
30888;SDS011;51092;50.874;7.024;2023-09-12T04:19:47;12.82;;;7.80;;
30888;SDS011;51092;50.874;7.024;2023-09-12T04:20:49;13.38;;;7.68;;
30888;SDS011;51092;50.874;7.024;2023-09-12T04:21:51;11.65;;;7.78;;
30888;SDS011;51092;50.874;7.024;2023-09-12T04:22:53;8.57;;;7.53;;
30888;SDS011;51092;50.874;7.024;2023-09-12T04:23:55;11.50;;;7.05;;
30888;SDS011;51092;50.874;7.024;2023-09-12T04:24:57;9.15;;;7.40;;
30888;SDS011;51092;50.874;7.024;2023-09-12T04:25:59;10.20;;;7.65;;
30888;SDS011;51092;50.874;7.024;2023-09-12T04:27:18;8.35;;;7.13;;
30888;SDS011;51092;50.874;7.024;2023-09-12T04:28:20;10.35;;;7.53;;
30888;SDS011;51092;50.874;7.024;2023-09-12T04:29:22;9.35;;;7.03;;
30888;SDS011;51092;50.874;7.024;2023-09-12T04:30:24;7.70;;;6.90;;
30888;SDS011;51092;50.874;7.024;2023-09-12T04:31:26;9.40;;;7.32;;
30888;SDS011;51092;50.874;7.024;2023-09-12T04:32:31;8.18;;;7.13;;
30888;SDS011;51092;50.874;7.024;2023-09-12T04:33:33;10.23;;;7.80;;
30888;SDS011;51092;50.874;7.024;2023-09-12T04:34:35;11.20;;;6.53;;
30888;SDS011;51092;50.874;7.024;2023-09-12T04:35:39;9.30;;;7.18;;
30888;SDS011;51092;50.874;7.024;2023-09-12T04:36:41;9.10;;;7.57;;
30888;SDS011;51092;50.874;7.024;2023-09-12T04:37:45;11.88;;;7.38;;
30888;SDS011;51092;50.874;7.024;2023-09-12T04:38:48;8.02;;;6.72;;
30888;SDS011;51092;50.874;7.024;2023-09-12T04:39:49;10.43;;;7.57;;
30888;SDS011;51092;50.874;7.024;2023-09-12T04:40:53;8.60;;;7.60;;
30888;SDS011;51092;50.874;7.024;2023-09-12T04:41:55;10.82;;;7.50;;
30888;SDS011;51092;50.874;7.024;2023-09-12T04:42:57;11.50;;;7.28;;
30888;SDS011;51092;50.874;7.024;2023-09-12T04:43:59;14.25;;;8.05;;
30888;SDS011;51092;50.874;7.024;2023-09-12T04:45:03;13.93;;;7.53;;
30888;SDS011;51092;50.874;7.024;2023-09-12T04:46:05;9.63;;;6.85;;
30888;SDS011;51092;50.874;7.024;2023-09-12T04:47:12;10.95;;;7.07;;
30888;SDS011;51092;50.874;7.024;2023-09-12T04:48:14;8.35;;;7.53;;
30888;SDS011;51092;50.874;7.024;2023-09-12T04:49:19;8.48;;;6.72;;
30888;SDS011;51092;50.874;7.024;2023-09-12T04:50:21;9.52;;;7.32;;
30888;SDS011;51092;50.874;7.024;2023-09-12T04:51:25;7.78;;;6.97;;
30888;SDS011;51092;50.874;7.024;2023-09-12T04:52:28;11.55;;;7.13;;
30888;SDS011;51092;50.874;7.024;2023-09-12T04:53:31;9.02;;;7.30;;
30888;SDS011;51092;50.874;7.024;2023-09-12T04:54:35;10.82;;;7.03;;
30888;SDS011;51092;50.874;7.024;2023-09-12T04:55:41;9.68;;;7.63;;
30888;SDS011;51092;50.874;7.024;2023-09-12T04:56:42;8.23;;;6.97;;
30888;SDS011;51092;50.874;7.024;2023-09-12T04:57:45;11.40;;;7.82;;
30888;SDS011;51092;50.874;7.024;2023-09-12T04:58:46;9.98;;;7.72;;
30888;SDS011;51092;50.874;7.024;2023-09-12T04:59:50;10.00;;;6.60;;
30888;SDS011;51092;50.874;7.024;2023-09-12T05:00:52;8.15;;;6.68;;
30888;SDS011;51092;50.874;7.024;2023-09-12T05:01:56;7.18;;;6.35;;
30888;SDS011;51092;50.874;7.024;2023-09-12T05:02:57;9.95;;;7.25;;
30888;SDS011;51092;50.874;7.024;2023-09-12T05:03:59;12.57;;;8.02;;
30888;SDS011;51092;50.874;7.024;2023-09-12T05:05:00;11.60;;;7.80;;
30888;SDS011;51092;50.874;7.024;2023-09-12T05:06:04;13.60;;;8.23;;
30888;SDS011;51092;50.874;7.024;2023-09-12T05:07:06;11.32;;;8.75;;
30888;SDS011;51092;50.874;7.024;2023-09-12T05:08:09;12.27;;;9.20;;
30888;SDS011;51092;50.874;7.024;2023-09-12T05:09:10;11.25;;;8.98;;
30888;SDS011;51092;50.874;7.024;2023-09-12T05:10:13;12.02;;;8.35;;
30888;SDS011;51092;50.874;7.024;2023-09-12T05:11:14;12.10;;;8.48;;
30888;SDS011;51092;50.874;7.024;2023-09-12T05:12:17;10.52;;;8.20;;
30888;SDS011;51092;50.874;7.024;2023-09-12T05:13:18;14.70;;;9.13;;
30888;SDS011;51092;50.874;7.024;2023-09-12T05:14:21;10.80;;;8.48;;
30888;SDS011;51092;50.874;7.024;2023-09-12T05:15:22;12.45;;;9.27;;
30888;SDS011;51092;50.874;7.024;2023-09-12T05:16:27;13.60;;;8.63;;
30888;SDS011;51092;50.874;7.024;2023-09-12T05:17:29;13.70;;;10.20;;
30888;SDS011;51092;50.874;7.024;2023-09-12T05:18:31;10.32;;;9.23;;
30888;SDS011;51092;50.874;7.024;2023-09-12T05:19:33;11.65;;;9.15;;
30888;SDS011;51092;50.874;7.024;2023-09-12T05:20:35;13.00;;;9.65;;
30888;SDS011;51092;50.874;7.024;2023-09-12T05:21:37;15.05;;;9.65;;
30888;SDS011;51092;50.874;7.024;2023-09-12T05:22:40;15.23;;;8.98;;
30888;SDS011;51092;50.874;7.024;2023-09-12T05:23:42;12.40;;;8.75;;
30888;SDS011;51092;50.874;7.024;2023-09-12T05:24:45;12.95;;;9.00;;
30888;SDS011;51092;50.874;7.024;2023-09-12T05:25:47;9.30;;;8.40;;
30888;SDS011;51092;50.874;7.024;2023-09-12T05:26:48;15.80;;;9.50;;
30888;SDS011;51092;50.874;7.024;2023-09-12T05:27:51;9.27;;;8.30;;
30888;SDS011;51092;50.874;7.024;2023-09-12T05:28:55;10.60;;;9.30;;
30888;SDS011;51092;50.874;7.024;2023-09-12T05:29:58;11.15;;;8.52;;
30888;SDS011;51092;50.874;7.024;2023-09-12T05:30:59;14.77;;;9.25;;
30888;SDS011;51092;50.874;7.024;2023-09-12T05:32:02;11.98;;;9.25;;
30888;SDS011;51092;50.874;7.024;2023-09-12T05:33:04;9.82;;;8.75;;
30888;SDS011;51092;50.874;7.024;2023-09-12T05:34:06;10.98;;;9.23;;
30888;SDS011;51092;50.874;7.024;2023-09-12T05:35:08;13.98;;;8.98;;
30888;SDS011;51092;50.874;7.024;2023-09-12T05:36:10;12.52;;;8.57;;
30888;SDS011;51092;50.874;7.024;2023-09-12T05:37:12;17.08;;;10.32;;
30888;SDS011;51092;50.874;7.024;2023-09-12T05:38:16;10.70;;;8.43;;
30888;SDS011;51092;50.874;7.024;2023-09-12T05:39:17;11.07;;;9.38;;
30888;SDS011;51092;50.874;7.024;2023-09-12T05:40:20;13.25;;;9.40;;
30888;SDS011;51092;50.874;7.024;2023-09-12T05:41:21;12.45;;;10.45;;
30888;SDS011;51092;50.874;7.024;2023-09-12T05:42:23;13.75;;;10.15;;
30888;SDS011;51092;50.874;7.024;2023-09-12T05:43:24;10.93;;;9.63;;
30888;SDS011;51092;50.874;7.024;2023-09-12T05:44:26;14.45;;;9.77;;
30888;SDS011;51092;50.874;7.024;2023-09-12T05:45:28;11.98;;;9.73;;
30888;SDS011;51092;50.874;7.024;2023-09-12T05:46:31;12.77;;;10.63;;
30888;SDS011;51092;50.874;7.024;2023-09-12T05:47:33;14.40;;;10.60;;
30888;SDS011;51092;50.874;7.024;2023-09-12T05:48:35;16.52;;;10.95;;
30888;SDS011;51092;50.874;7.024;2023-09-12T05:49:37;14.00;;;11.23;;
30888;SDS011;51092;50.874;7.024;2023-09-12T05:50:39;12.75;;;11.23;;
30888;SDS011;51092;50.874;7.024;2023-09-12T05:51:41;20.13;;;12.40;;
30888;SDS011;51092;50.874;7.024;2023-09-12T05:52:44;14.50;;;10.25;;
30888;SDS011;51092;50.874;7.024;2023-09-12T05:53:46;12.05;;;10.60;;
30888;SDS011;51092;50.874;7.024;2023-09-12T05:54:49;15.45;;;10.38;;
30888;SDS011;51092;50.874;7.024;2023-09-12T05:55:51;15.82;;;11.10;;
30888;SDS011;51092;50.874;7.024;2023-09-12T05:56:52;15.48;;;11.32;;
30888;SDS011;51092;50.874;7.024;2023-09-12T05:57:55;12.98;;;10.90;;
30888;SDS011;51092;50.874;7.024;2023-09-12T05:58:56;13.50;;;11.10;;
30888;SDS011;51092;50.874;7.024;2023-09-12T05:59:59;11.10;;;9.98;;
30888;SDS011;51092;50.874;7.024;2023-09-12T06:01:00;15.57;;;10.48;;
30888;SDS011;51092;50.874;7.024;2023-09-12T06:02:03;12.85;;;10.13;;
30888;SDS011;51092;50.874;7.024;2023-09-12T06:03:06;14.77;;;11.50;;
30888;SDS011;51092;50.874;7.024;2023-09-12T06:04:09;13.07;;;11.15;;
30888;SDS011;51092;50.874;7.024;2023-09-12T06:05:10;10.88;;;9.52;;
30888;SDS011;51092;50.874;7.024;2023-09-12T06:06:13;13.77;;;11.30;;
30888;SDS011;51092;50.874;7.024;2023-09-12T06:07:14;12.95;;;10.60;;
30888;SDS011;51092;50.874;7.024;2023-09-12T06:08:19;11.57;;;9.63;;
30888;SDS011;51092;50.874;7.024;2023-09-12T06:09:22;35.05;;;13.95;;
30888;SDS011;51092;50.874;7.024;2023-09-12T06:10:25;26.95;;;11.95;;
30888;SDS011;51092;50.874;7.024;2023-09-12T06:11:26;25.23;;;11.65;;
30888;SDS011;51092;50.874;7.024;2023-09-12T06:12:29;21.40;;;11.73;;